Time;durP1;ratioP1;P1;durP2;ratioP2;P2;SDS_P1;SDS_P2;PMS_P1;PMS_P2;Temp;Humidity;BMP_temperature;BMP_pressure;BME280_temperature;BME280_humidity;BME280_pressure;Samples;Min_cycle;Max_cycle;Signal;HPM_P1;HPM_P2
2022/12/22 03:27:40;;;;;;;8.27;4.40;;;;;;;0.75;81.65;95554.06;1754382;82;21173;-80
2022/12/22 03:30:08;;;;;;;10.97;6.67;;;;;;;0.79;81.57;95557.18;1732301;82;21445;-80
2022/12/22 03:32:34;;;;;;;7.93;4.70;;;;;;;0.84;81.48;95558.14;1728339;83;20994;-79
2022/12/22 03:35:01;;;;;;;7.60;4.30;;;;;;;0.81;80.99;95558.09;1748070;82;20967;-79
2022/12/22 03:37:27;;;;;;;5.83;3.47;;;;;;;0.81;81.24;95554.62;1732257;82;21003;-77
2022/12/22 03:39:53;;;;;;;8.57;3.70;;;;;;;0.83;81.36;95549.91;1754085;82;21050;-79
2022/12/22 03:47:53;;;;;;;6.00;3.83;;;;;;;0.91;81.15;95533.55;1754357;82;20983;-79
2022/12/22 03:50:20;;;;;;;5.63;2.97;;;;;;;0.98;81.81;95535.02;1732553;82;21508;-80
2022/12/22 03:52:46;;;;;;;6.43;3.63;;;;;;;1.11;82.10;95539.09;1753859;82;21030;-79
2022/12/22 03:55:13;;;;;;;18.47;9.67;;;;;;;1.21;81.83;95528.00;1754419;82;21042;-79
2022/12/22 03:57:40;;;;;;;5.57;3.33;;;;;;;1.15;80.79;95532.68;1754220;82;21027;-79
2022/12/22 04:00:08;;;;;;;4.63;2.33;;;;;;;1.09;81.16;95540.39;1754160;82;21007;-79
2022/12/22 04:02:36;;;;;;;6.90;3.60;;;;;;;1.02;80.86;95535.50;1753841;82;21473;-79
2022/12/22 04:05:03;;;;;;;13.47;7.33;;;;;;;0.92;80.96;95532.30;1754330;82;21011;-79
2022/12/22 04:07:30;;;;;;;7.17;3.70;;;;;;;0.91;81.18;95536.16;1754130;82;21517;-79
2022/12/22 04:12:53;;;;;;;6.10;3.13;;;;;;;0.83;81.59;95527.83;1754008;82;20987;-79
2022/12/22 04:15:27;;;;;;;6.27;4.30;;;;;;;0.88;81.69;95520.09;1732282;83;21058;-79
2022/12/22 04:17:54;;;;;;;15.90;9.00;;;;;;;0.88;81.81;95525.28;1753736;82;21038;-80
2022/12/22 04:20:25;;;;;;;24.73;15.07;;;;;;;0.91;81.83;95524.47;1754072;82;21019;-79
2022/12/22 04:22:53;;;;;;;16.20;8.87;;;;;;;0.86;81.33;95523.11;1754053;82;21507;-79
2022/12/22 04:25:21;;;;;;;20.43;11.60;;;;;;;0.89;81.63;95524.89;1754621;82;21088;-79
2022/12/22 04:27:47;;;;;;;14.73;8.10;;;;;;;0.91;81.43;95524.06;1732142;83;21493;-79
2022/12/22 04:30:15;;;;;;;12.67;7.17;;;;;;;0.95;81.60;95514.59;1754288;82;20971;-79
2022/12/22 04:32:42;;;;;;;10.27;5.63;;;;;;;0.93;81.14;95514.55;1753996;82;21047;-80
2022/12/22 04:35:10;;;;;;;6.67;4.03;;;;;;;0.90;81.21;95514.50;1746064;81;21054;-79
2022/12/22 04:37:37;;;;;;;8.40;5.07;;;;;;;0.89;81.27;95514.06;1745928;82;21048;-79
2022/12/22 04:40:04;;;;;;;6.10;3.83;;;;;;;0.88;81.54;95512.30;1746162;81;21016;-79
2022/12/22 04:42:31;;;;;;;4.73;3.40;;;;;;;0.93;81.90;95509.78;1714731;82;21054;-79
2022/12/22 04:44:58;;;;;;;6.27;3.43;;;;;;;0.97;81.67;95505.97;1746223;82;21043;-79
2022/12/22 04:47:24;;;;;;;8.90;4.87;;;;;;;0.94;81.51;95507.66;1724746;82;20996;-79
2022/12/22 04:49:51;;;;;;;8.23;4.90;;;;;;;0.96;81.97;95512.42;1746064;82;21031;-79
2022/12/22 04:52:17;;;;;;;20.47;11.30;;;;;;;1.02;82.17;95508.22;1745919;82;21023;-79
2022/12/22 04:54:44;;;;;;;6.13;3.63;;;;;;;1.04;81.73;95501.33;1724964;83;21007;-79
2022/12/22 04:57:11;;;;;;;5.97;3.53;;;;;;;1.11;81.96;95498.42;1746113;82;21038;-79
2022/12/22 04:59:37;;;;;;;4.77;3.43;;;;;;;1.12;82.10;95500.16;1746149;81;21012;-79
2022/12/22 05:02:04;;;;;;;8.33;4.70;;;;;;;1.19;81.99;95489.45;1745874;82;21011;-79
2022/12/22 05:04:31;;;;;;;9.33;5.93;;;;;;;1.10;81.92;95494.05;1746118;82;20988;-79
2022/12/22 05:06:57;;;;;;;14.53;9.00;;;;;;;1.12;82.28;95494.09;1745898;82;21008;-79
2022/12/22 05:09:24;;;;;;;8.70;6.50;;;;;;;1.18;82.46;95503.27;1746131;82;21490;-79
2022/12/22 05:11:51;;;;;;;12.43;7.60;;;;;;;1.24;82.07;95504.69;1746005;82;21019;-79
2022/12/22 05:14:17;;;;;;;19.23;11.20;;;;;;;1.21;81.94;95504.22;1746150;82;21000;-74
2022/12/22 05:16:44;;;;;;;11.93;7.50;;;;;;;1.20;81.92;95505.05;1745907;82;20991;-77
2022/12/22 05:19:10;;;;;;;7.27;4.77;;;;;;;1.20;81.83;95504.17;1745949;82;21035;-77
2022/12/22 05:21:37;;;;;;;10.30;7.00;;;;;;;1.23;81.94;95501.19;1745953;82;22243;-77
2022/12/22 05:24:04;;;;;;;10.10;6.13;;;;;;;1.20;81.23;95506.34;1745848;81;20987;-77
2022/12/22 05:26:31;;;;;;;6.60;4.20;;;;;;;1.09;81.39;95504.02;1745964;82;21549;-77
2022/12/22 05:28:58;;;;;;;8.43;4.27;;;;;;;1.04;81.58;95504.36;1746113;82;21470;-77
2022/12/22 05:31:25;;;;;;;14.03;6.80;;;;;;;1.01;81.99;95496.52;1746044;82;21007;-79
2022/12/22 05:33:52;;;;;;;6.20;4.00;;;;;;;1.05;82.12;95493.97;1745870;82;21486;-79
2022/12/22 05:36:19;;;;;;;7.10;3.70;;;;;;;1.05;82.02;95495.70;1745961;82;21023;-78
2022/12/22 05:38:46;;;;;;;15.30;7.00;;;;;;;1.03;81.99;95499.59;1724533;83;20992;-78
2022/12/22 05:41:13;;;;;;;15.03;7.53;;;;;;;1.00;82.01;95494.33;1715180;82;21075;-78
2022/12/22 05:43:39;;;;;;;11.33;6.40;;;;;;;1.01;82.39;95492.20;1746028;81;21056;-78
2022/12/22 05:46:09;;;;;;;22.77;11.20;;;;;;;1.11;82.72;95489.33;1745934;82;21055;-78
2022/12/22 05:48:36;;;;;;;54.80;27.33;;;;;;;1.11;81.99;95502.72;1745973;82;21043;-77
2022/12/22 05:51:03;;;;;;;79.53;37.70;;;;;;;1.02;82.30;95503.02;1745974;82;21023;-77
2022/12/22 05:53:29;;;;;;;99.17;42.23;;;;;;;1.05;82.55;95499.60;1745864;81;20995;-77
2022/12/22 05:55:56;;;;;;;44.10;21.47;;;;;;;1.14;82.66;95502.79;1745950;82;21019;-77
2022/12/22 05:58:23;;;;;;;10.40;6.23;;;;;;;1.15;82.13;95504.53;1745984;82;21038;-77
2022/12/22 06:00:50;;;;;;;16.90;8.47;;;;;;;1.14;82.35;95496.30;1746025;81;21597;-78
2022/12/22 06:03:17;;;;;;;17.97;9.63;;;;;;;1.24;82.92;95501.66;1746080;82;21003;-77
2022/12/22 06:05:43;;;;;;;22.27;12.83;;;;;;;1.30;82.58;95506.94;1745911;82;21053;-77
2022/12/22 06:08:09;;;;;;;29.07;15.40;;;;;;;1.40;82.70;95497.98;1724624;83;21477;-78
2022/12/22 06:10:36;;;;;;;28.87;14.93;;;;;;;1.42;82.13;95507.56;1753844;81;21043;-77
2022/12/22 06:13:03;;;;;;;77.63;33.80;;;;;;;1.42;82.16;95512.76;1745998;82;21529;-78
2022/12/22 06:15:29;;;;;;;51.70;27.47;;;;;;;1.44;81.85;95525.36;1745965;82;21013;-78
2022/12/22 06:17:56;;;;;;;35.63;20.23;;;;;;;1.48;82.12;95515.87;1745811;82;21050;-74
2022/12/22 06:20:23;;;;;;;32.73;18.63;;;;;;;1.50;81.87;95519.37;1745763;82;20984;-78
2022/12/22 06:22:49;;;;;;;73.80;38.37;;;;;;;1.46;81.08;95519.77;1745536;82;21011;-69
2022/12/22 06:25:16;;;;;;;49.17;26.33;;;;;;;1.32;80.21;95534.27;1723916;82;21051;-75
2022/12/22 06:27:42;;;;;;;31.47;16.67;;;;;;;1.26;80.57;95525.05;1753946;81;20987;-68
2022/12/22 06:30:10;;;;;;;25.13;15.13;;;;;;;1.26;80.60;95525.95;1745542;82;21270;-76
2022/12/22 06:32:38;;;;;;;27.80;13.40;;;;;;;1.25;80.43;95531.98;1723919;83;21589;-73
2022/12/22 06:35:07;;;;;;;22.43;12.50;;;;;;;1.18;80.09;95532.73;1763297;81;21030;-70
2022/12/22 06:37:34;;;;;;;20.73;11.87;;;;;;;1.13;80.33;95529.61;1767434;81;20986;-75
2022/12/22 06:40:01;;;;;;;22.00;13.17;;;;;;;1.10;79.75;95542.13;1739355;81;21002;-77
2022/12/22 06:45:13;;;;;;;19.60;11.87;;;;;;;1.04;78.68;95555.02;1768877;81;21004;-72
2022/12/22 06:47:40;;;;;;;19.20;11.17;;;;;;;0.96;78.21;95554.89;1772849;81;20971;-69
2022/12/22 06:50:08;;;;;;;18.37;11.03;;;;;;;0.97;78.13;95546.67;1757861;81;21091;-72
2022/12/22 06:52:35;;;;;;;18.83;11.43;;;;;;;1.01;78.54;95556.28;1800177;80;21001;-74
2022/12/22 06:55:02;;;;;;;17.73;11.23;;;;;;;1.03;78.64;95552.86;1799944;80;21538;-70
2022/12/22 06:57:29;;;;;;;21.67;12.37;;;;;;;1.02;77.69;95554.12;1758870;81;21137;-75
2022/12/22 06:59:56;;;;;;;19.13;11.47;;;;;;;0.95;77.11;95554.86;1759929;81;21093;-77
2022/12/22 07:02:22;;;;;;;27.53;12.67;;;;;;;0.93;77.15;95548.75;1759869;81;21042;-75
2022/12/22 07:04:49;;;;;;;23.20;14.43;;;;;;;0.88;77.75;95553.86;1759196;81;21058;-72
2022/12/22 07:07:15;;;;;;;21.37;12.50;;;;;;;0.87;77.06;95554.72;1759011;81;21046;-70
2022/12/22 07:09:42;;;;;;;18.63;12.13;;;;;;;0.89;77.39;95549.56;1759038;81;21046;-74
2022/12/22 07:12:09;;;;;;;18.37;11.70;;;;;;;0.94;77.23;95546.62;1759714;81;21050;-70
2022/12/22 07:14:35;;;;;;;22.93;14.17;;;;;;;0.89;76.41;95546.53;1759622;81;21023;-73
2022/12/22 07:17:02;;;;;;;21.53;12.17;;;;;;;0.88;76.00;95546.50;1759246;81;21540;-71
2022/12/22 07:19:28;;;;;;;19.40;12.40;;;;;;;0.87;76.58;95550.83;1759176;81;21073;-69
2022/12/22 07:21:56;;;;;;;24.13;16.33;;;;;;;0.91;76.37;95551.73;1759885;81;21058;-74
2022/12/22 07:24:24;;;;;;;25.63;16.87;;;;;;;0.90;76.04;95556.06;1759725;81;21524;-72
2022/12/22 07:26:51;;;;;;;20.43;14.47;;;;;;;0.91;75.73;95554.34;1760613;81;21520;-76
2022/12/22 07:29:17;;;;;;;23.47;15.37;;;;;;;0.86;75.71;95549.09;1759782;81;21453;-70
2022/12/22 07:31:44;;;;;;;21.17;13.90;;;;;;;0.88;76.06;95543.90;1760443;81;20975;-70
2022/12/22 07:34:11;;;;;;;21.90;12.73;;;;;;;0.93;75.53;95553.52;1759616;81;21571;-70
2022/12/22 07:36:37;;;;;;;18.10;11.33;;;;;;;0.93;74.75;95552.64;1759249;81;21046;-70
2022/12/22 07:39:04;;;;;;;22.63;12.17;;;;;;;1.00;75.31;95557.98;1758697;81;21030;-70
2022/12/22 07:44:16;;;;;;;35.63;20.27;;;;;;;1.08;73.87;95550.31;1760308;81;21073;-70
2022/12/22 07:46:42;;;;;;;30.73;17.70;;;;;;;1.11;74.63;95542.59;1760401;81;21536;-70
2022/12/22 07:51:57;;;;;;;22.93;13.43;;;;;;;1.22;74.28;95555.76;1760661;81;21003;-70
2022/12/22 07:54:25;;;;;;;23.10;13.67;;;;;;;1.23;73.40;95548.40;1760523;81;21073;-70
2022/12/22 07:56:52;;;;;;;23.67;13.37;;;;;;;1.18;72.48;95548.75;1760520;81;21046;-70
2022/12/22 07:59:20;;;;;;;23.17;14.57;;;;;;;1.16;73.22;95556.54;1760468;81;21010;-70
2022/12/22 08:01:46;;;;;;;25.53;14.20;;;;;;;1.20;73.20;95546.62;1760316;81;21058;-70
2022/12/22 08:04:14;;;;;;;24.40;15.80;;;;;;;1.21;73.03;95539.70;1760548;81;21003;-71
2022/12/22 08:06:42;;;;;;;21.83;13.43;;;;;;;1.21;72.95;95533.20;1760681;81;21031;-70
2022/12/22 08:09:15;;;;;;;22.40;13.87;;;;;;;1.21;73.26;95531.50;1760598;81;20994;-70
2022/12/22 08:11:42;;;;;;;28.10;15.60;;;;;;;1.23;72.66;95532.38;1760755;81;20995;-70
2022/12/22 08:14:08;;;;;;;28.37;13.90;;;;;;;1.24;72.86;95530.67;1760774;81;21133;-70
2022/12/22 08:16:35;;;;;;;23.63;13.57;;;;;;;1.19;72.43;95529.73;1760773;81;21058;-70
2022/12/22 08:19:01;;;;;;;20.27;12.47;;;;;;;1.10;71.51;95526.97;1760737;81;21537;-70
2022/12/22 08:21:28;;;;;;;23.57;15.17;;;;;;;1.02;71.50;95531.61;1760896;81;21536;-70
2022/12/22 08:23:55;;;;;;;24.27;14.63;;;;;;;0.98;72.38;95534.12;1760587;81;20987;-70
2022/12/22 08:26:44;;;;;;;26.17;15.83;;;;;;;1.00;72.79;95538.49;1760696;81;21075;-70
2022/12/22 08:29:18;;;;;;;25.10;15.93;;;;;;;0.99;72.97;95536.75;1760727;81;21066;-70
2022/12/22 08:31:45;;;;;;;23.20;14.60;;;;;;;1.03;72.80;95539.87;1760696;81;21069;-70
2022/12/22 08:34:14;;;;;;;25.07;15.30;;;;;;;1.12;72.64;95535.67;1758576;81;20998;-71
2022/12/22 08:36:48;;;;;;;24.83;16.83;;;;;;;1.11;72.21;95538.70;1744512;81;21023;-70
2022/12/22 08:39:16;;;;;;;30.33;15.67;;;;;;;1.14;72.56;95543.94;1744331;82;20996;-70
2022/12/22 08:41:49;;;;;;;23.50;13.37;;;;;;;1.16;72.82;95539.65;1744438;82;21008;-70
2022/12/22 08:44:20;;;;;;;25.68;14.30;;;;;;;1.16;72.10;95533.15;1744616;82;20976;-71
2022/12/22 08:46:47;;;;;;;23.50;14.23;;;;;;;1.18;71.73;95532.73;1743591;82;20984;-70
2022/12/22 08:49:15;;;;;;;22.13;13.57;;;;;;;1.23;71.47;95540.17;1744409;82;21506;-70
2022/12/22 08:51:42;;;;;;;23.27;13.80;;;;;;;1.27;71.27;95533.31;1744527;82;21014;-70
2022/12/22 08:54:09;;;;;;;21.50;14.33;;;;;;;1.36;71.01;95532.58;1744403;82;21118;-70
2022/12/22 08:56:36;;;;;;;24.97;15.27;;;;;;;1.43;70.97;95533.99;1744437;82;21054;-70
2022/12/22 08:59:06;;;;;;;23.43;14.40;;;;;;;1.48;70.89;95539.27;1744585;82;21019;-70
2022/12/22 09:01:35;;;;;;;27.20;15.63;;;;;;;1.46;69.84;95538.36;1744451;82;21028;-70
2022/12/22 09:04:04;;;;;;;21.13;13.13;;;;;;;1.48;69.83;95535.37;1713246;82;21024;-70
2022/12/22 09:06:31;;;;;;;24.33;14.70;;;;;;;1.57;70.03;95531.62;1744458;82;21027;-70
2022/12/22 09:09:01;;;;;;;23.70;15.00;;;;;;;1.62;69.55;95522.59;1744249;82;21058;-70
2022/12/22 09:11:28;;;;;;;28.73;18.00;;;;;;;1.66;69.55;95510.06;1744466;82;21003;-70
2022/12/22 09:13:59;;;;;;;25.40;17.10;;;;;;;1.73;69.32;95514.50;1744402;82;21062;-70
2022/12/22 09:16:28;;;;;;;27.57;16.50;;;;;;;1.81;69.41;95519.81;1744482;82;20976;-70
2022/12/22 09:18:55;;;;;;;26.07;15.93;;;;;;;1.86;69.01;95519.01;1744464;81;21486;-70
2022/12/22 09:21:24;;;;;;;25.53;16.13;;;;;;;1.91;69.06;95516.05;1744380;81;20991;-70
2022/12/22 09:23:51;;;;;;;25.93;15.43;;;;;;;1.95;68.85;95509.17;1744804;82;21071;-70
2022/12/22 09:26:20;;;;;;;22.73;12.73;;;;;;;2.00;68.68;95500.12;1744426;82;21466;-70
2022/12/22 09:28:47;;;;;;;21.63;14.27;;;;;;;2.01;68.50;95494.92;1744136;82;21510;-70
2022/12/22 09:31:14;;;;;;;26.07;14.50;;;;;;;1.97;66.83;95498.80;1744563;82;20983;-70
2022/12/22 09:33:41;;;;;;;24.47;16.27;;;;;;;1.94;67.62;95494.39;1744561;82;21027;-70
2022/12/22 09:36:14;;;;;;;24.30;14.70;;;;;;;2.02;67.64;95486.72;1757345;81;20999;-70
2022/12/22 09:38:42;;;;;;;24.03;14.40;;;;;;;2.12;68.38;95480.77;1760408;81;21548;-70
2022/12/22 09:41:33;;;;;;;22.67;13.67;;;;;;;2.24;67.71;95478.71;1760669;81;20998;-70
2022/12/22 09:44:23;;;;;;;21.73;13.90;;;;;;;2.37;67.51;95480.19;1760705;81;20998;-70
2022/12/22 09:46:53;;;;;;;25.83;14.90;;;;;;;2.60;66.95;95480.42;1760597;81;21010;-70
2022/12/22 09:49:21;;;;;;;25.07;15.37;;;;;;;2.74;67.21;95479.68;1759751;81;21053;-70
2022/12/22 09:51:59;;;;;;;27.87;15.27;;;;;;;2.86;67.38;95485.02;1759155;81;21101;-70
2022/12/22 09:54:26;;;;;;;19.20;12.10;;;;;;;2.97;64.60;95489.02;1759560;81;21011;-71
2022/12/22 09:56:53;;;;;;;21.30;13.80;;;;;;;3.01;63.30;95478.63;1759844;81;21010;-68
2022/12/22 09:59:22;;;;;;;26.83;15.43;;;;;;;3.14;64.48;95482.65;1760671;81;21047;-68
2022/12/22 10:02:05;;;;;;;22.97;14.43;;;;;;;3.43;64.76;95466.80;1760690;81;20967;-68
2022/12/22 10:04:49;;;;;;;23.17;13.80;;;;;;;3.72;64.06;95460.88;1760415;81;20999;-71
2022/12/22 10:07:31;;;;;;;22.30;14.10;;;;;;;4.03;63.62;95458.02;1760599;81;21493;-71
2022/12/22 10:10:18;;;;;;;26.00;14.77;;;;;;;4.22;64.25;95465.47;1759672;81;21026;-71
2022/12/22 10:12:45;;;;;;;21.67;12.90;;;;;;;4.31;63.17;95456.38;1760674;81;21048;-71
2022/12/22 10:15:12;;;;;;;25.30;14.70;;;;;;;4.32;62.76;95455.49;1730897;81;21013;-68
2022/12/22 10:17:38;;;;;;;27.70;17.30;;;;;;;4.33;63.10;95455.05;1760237;81;21010;-68
2022/12/22 10:20:25;;;;;;;25.90;17.27;;;;;;;4.36;63.31;95458.11;1760739;81;21472;-68
2022/12/22 10:23:21;;;;;;;23.23;14.03;;;;;;;4.34;62.42;95448.98;1760835;81;21513;-70
2022/12/22 10:25:59;;;;;;;26.80;14.57;;;;;;;4.31;62.91;95448.53;1737701;81;20989;-70
2022/12/22 10:28:37;;;;;;;24.27;14.50;;;;;;;4.28;62.12;95456.38;1736030;83;21038;-71
2022/12/22 10:31:21;;;;;;;22.17;12.87;;;;;;;4.29;62.85;95448.09;1736179;83;21520;-68
2022/12/22 10:33:51;;;;;;;18.90;12.27;;;;;;;4.24;61.83;95433.70;1735503;83;21042;-71
2022/12/22 10:36:26;;;;;;;23.73;13.30;;;;;;;4.10;60.63;95441.48;1732953;82;21041;-71
2022/12/22 10:39:06;;;;;;;24.17;13.27;;;;;;;4.06;62.01;95441.48;1729874;83;20994;-71
2022/12/22 10:41:43;;;;;;;25.17;14.10;;;;;;;4.02;62.69;95444.50;1732071;83;21030;-71
2022/12/22 10:44:20;;;;;;;23.00;13.33;;;;;;;4.00;62.89;95434.91;1732221;83;20979;-71
2022/12/22 10:46:54;;;;;;;25.57;13.47;;;;;;;3.93;62.02;95443.17;1732009;83;21022;-71
2022/12/22 10:49:34;;;;;;;19.33;12.00;;;;;;;3.84;61.38;95436.16;1730851;83;21045;-71
2022/12/22 10:52:23;;;;;;;21.53;12.53;;;;;;;3.74;60.82;95441.33;1732249;83;21042;-71
2022/12/22 10:54:51;;;;;;;23.37;12.60;;;;;;;3.65;61.53;95439.52;1744825;82;21135;-71
2022/12/22 10:57:25;;;;;;;19.57;12.10;;;;;;;3.62;62.44;95439.08;1739689;82;20974;-71
2022/12/22 10:59:58;;;;;;;22.20;13.90;;;;;;;3.60;61.78;95442.54;1745148;81;21434;-71
2022/12/22 11:02:28;;;;;;;;;;;;;;;3.55;62.41;95443.81;1741964;82;21042;-72
2022/12/22 11:05:05;;;;;;;23.80;14.93;;;;;;;3.54;62.47;95445.13;1740110;82;20093;-71
2022/12/22 11:07:37;;;;;;;20.77;12.70;;;;;;;3.53;62.91;95442.95;1745211;82;21193;-70
2022/12/22 11:10:16;;;;;;;22.30;13.20;;;;;;;3.58;62.52;95432.52;1739368;82;21042;-70
2022/12/22 11:13:22;;;;;;;20.70;12.30;;;;;;;3.70;63.17;95428.68;1716077;82;21031;-70
2022/12/22 11:16:16;;;;;;;20.43;12.30;;;;;;;3.93;62.65;95417.07;1745307;81;21011;-70
2022/12/22 11:19:12;;;;;;;20.17;11.47;;;;;;;4.11;62.64;95414.96;1745228;81;21003;-70
2022/12/22 11:22:14;;;;;;;18.13;11.50;;;;;;;4.22;62.68;95415.85;1745043;81;20983;-71
2022/12/22 11:25:06;;;;;;;22.27;13.93;;;;;;;4.34;60.99;95415.89;1743569;82;21129;-70
2022/12/22 11:27:50;;;;;;;29.37;18.77;;;;;;;4.41;60.83;95408.05;1744385;82;20980;-71
2022/12/22 11:30:22;;;;;;;26.10;17.05;;;;;;;4.53;61.31;95410.69;1742109;82;21071;-71
2022/12/22 11:33:06;;;;;;;22.83;15.17;;;;;;;4.73;60.91;95417.26;1744096;82;21114;-70
2022/12/22 11:35:44;;;;;;;23.97;15.20;;;;;;;4.93;59.35;95403.76;1744801;81;21051;-70
2022/12/22 11:38:22;;;;;;;29.97;18.50;;;;;;;5.05;60.43;95399.42;1744911;82;21091;-70
2022/12/22 11:40:54;;;;;;;30.97;18.03;;;;;;;5.10;60.05;95405.08;1723367;82;20991;-70
2022/12/22 11:43:38;;;;;;;36.60;21.67;;;;;;;4.99;58.83;95405.53;1743518;82;21074;-70
2022/12/22 11:46:36;;;;;;;32.27;19.17;;;;;;;4.89;60.24;95412.91;1742839;82;21569;-70
2022/12/22 11:49:36;;;;;;;23.33;14.97;;;;;;;4.86;60.94;95407.68;1744973;81;21031;-70
2022/12/22 11:52:22;;;;;;;23.73;14.77;;;;;;;4.76;59.33;95400.27;1745301;81;21007;-70
2022/12/22 11:55:17;;;;;;;23.67;14.53;;;;;;;4.72;59.38;95384.16;1745127;81;21031;-71
2022/12/22 11:58:16;;;;;;;25.57;14.27;;;;;;;4.75;58.55;95380.23;1742565;82;21094;-71
2022/12/22 12:00:48;;;;;;;24.27;14.47;;;;;;;4.85;59.74;95389.82;1745240;82;20992;-71
2022/12/22 12:03:35;;;;;;;27.30;16.83;;;;;;;4.90;59.86;95378.06;1739604;82;21513;-71
2022/12/22 12:06:29;;;;;;;22.93;14.77;;;;;;;5.06;59.76;95381.53;1739592;82;21075;-71
2022/12/22 12:09:22;;;;;;;21.03;13.90;;;;;;;5.23;58.52;95383.70;1745181;82;21027;-70
2022/12/22 12:12:12;;;;;;;23.87;14.00;;;;;;;5.40;58.13;95384.98;1745239;81;21512;-70
2022/12/22 12:15:02;;;;;;;22.53;13.50;;;;;;;5.64;58.05;95371.84;1745244;81;21473;-70
2022/12/22 12:17:52;;;;;;;29.30;19.23;;;;;;;5.94;58.30;95363.90;1744345;82;21055;-70
2022/12/22 12:20:27;;;;;;;32.40;24.27;;;;;;;6.24;55.33;95368.12;1727601;82;20983;-70
2022/12/22 12:23:23;;;;;;;22.43;14.60;;;;;;;6.25;55.65;95364.64;1740536;82;21608;-70
2022/12/22 12:26:03;;;;;;;29.03;20.63;;;;;;;6.31;54.02;95373.76;1745009;82;21055;-70
2022/12/22 12:28:39;;;;;;;19.87;13.33;;;;;;;6.19;54.62;95376.00;1744917;81;21157;-69
2022/12/22 12:31:08;;;;;;;19.47;12.03;;;;;;;6.16;54.85;95380.39;1745280;81;20999;-69
2022/12/22 12:33:50;;;;;;;21.23;11.87;;;;;;;6.06;55.10;95377.81;1714250;82;21023;-70
2022/12/22 12:36:51;;;;;;;18.70;12.70;;;;;;;5.91;55.44;95387.45;1743379;81;21071;-70
2022/12/22 12:39:41;;;;;;;20.33;11.70;;;;;;;5.79;56.53;95381.37;1744718;82;21561;-70
2022/12/22 12:42:28;;;;;;;21.77;12.30;;;;;;;5.60;56.87;95383.19;1744870;82;21138;-69
2022/12/22 12:44:55;;;;;;;19.13;13.37;;;;;;;5.44;57.27;95381.47;1744880;82;21006;-70
2022/12/22 12:47:28;;;;;;;19.93;12.93;;;;;;;5.30;57.59;95378.89;1745103;81;21016;-70
2022/12/22 12:50:02;;;;;;;18.00;11.15;;;;;;;5.17;57.90;95383.72;1745386;82;21454;-70
2022/12/22 12:52:47;;;;;;;22.07;13.13;;;;;;;4.99;58.22;95389.39;1744878;81;21035;-70
2022/12/22 12:55:35;;;;;;;17.65;10.43;;;;;;;4.88;58.75;95396.35;1745079;82;21019;-70
2022/12/22 12:58:04;;;;;;;15.73;9.83;;;;;;;4.74;58.85;95395.50;1742017;82;21497;-70
2022/12/22 13:00:36;;;;;;;21.00;11.73;;;;;;;4.63;59.21;95394.59;1745176;82;21052;-69
2022/12/22 13:03:26;;;;;;;29.63;15.73;;;;;;;4.49;59.21;95399.38;1745337;82;21023;-70
2022/12/22 13:06:01;;;;;;;24.70;13.57;;;;;;;4.42;60.55;95396.31;1745417;82;20979;-70
2022/12/22 13:08:50;;;;;;;21.73;11.90;;;;;;;4.36;60.88;95398.92;1745316;81;20995;-70
2022/12/22 13:11:20;;;;;;;15.83;10.10;;;;;;;4.30;61.13;95393.23;1725879;82;21059;-69
2022/12/22 13:13:48;;;;;;;16.97;10.30;;;;;;;4.25;61.14;95403.23;1745344;82;21062;-70
2022/12/22 13:16:19;;;;;;;18.87;10.60;;;;;;;4.22;61.17;95401.92;1745350;81;20976;-70
2022/12/22 13:18:48;;;;;;;22.23;11.23;;;;;;;4.19;62.62;95408.45;1713917;82;21146;-70
2022/12/22 13:21:24;;;;;;;20.97;12.10;;;;;;;4.04;64.78;95407.52;1745150;81;21054;-71
2022/12/22 13:24:07;;;;;;;19.73;10.83;;;;;;;3.98;64.92;95407.92;1745069;81;20987;-70
2022/12/22 13:26:38;;;;;;;23.57;13.25;;;;;;;3.93;66.11;95405.33;1744988;82;20999;-71
2022/12/22 13:29:29;;;;;;;33.60;17.43;;;;;;;3.86;65.72;95397.89;1745161;81;21011;-70
2022/12/22 13:32:07;;;;;;;44.97;25.47;;;;;;;3.88;65.91;95404.41;1745423;81;21027;-70
2022/12/22 13:34:44;;;;;;;30.00;17.90;;;;;;;3.88;65.80;95400.08;1739020;82;21564;-70
2022/12/22 13:37:24;;;;;;;36.80;20.90;;;;;;;3.96;65.70;95403.16;1759779;81;21535;-70
2022/12/22 13:40:19;;;;;;;42.27;22.73;;;;;;;4.02;65.73;95401.42;1764073;81;22176;-70
2022/12/22 13:43:03;;;;;;;37.60;22.03;;;;;;;4.06;65.38;95402.33;1734395;81;21010;-70
2022/12/22 13:45:47;;;;;;;31.97;18.87;;;;;;;4.06;64.84;95410.16;1763888;81;21102;-70
2022/12/22 13:48:34;;;;;;;38.40;21.15;;;;;;;4.04;65.66;95413.19;1763896;81;21132;-70
2022/12/22 13:51:04;;;;;;;38.60;23.90;;;;;;;4.02;65.06;95414.48;1764322;81;21042;-70
2022/12/22 13:53:41;;;;;;;38.77;22.77;;;;;;;3.99;65.98;95417.08;1764142;81;21046;-70
2022/12/22 13:56:16;;;;;;;26.10;15.73;;;;;;;3.95;66.98;95428.36;1764080;81;21002;-71
2022/12/22 13:58:44;;;;;;;21.03;13.43;;;;;;;3.86;67.03;95430.52;1763199;81;21515;-70
2022/12/22 14:01:15;;;;;;;24.20;14.20;;;;;;;3.79;66.54;95435.26;1764162;81;21017;-70
2022/12/22 14:03:50;;;;;;;24.73;15.30;;;;;;;3.68;68.18;95429.99;1764007;81;21030;-70
2022/12/22 14:06:28;;;;;;;25.23;14.57;;;;;;;3.62;68.30;95442.13;1753242;81;21010;-70
2022/12/22 14:09:14;;;;;;;23.93;14.03;;;;;;;3.56;68.60;95435.58;1762708;81;21062;-71
2022/12/22 14:11:44;;;;;;;28.23;15.80;;;;;;;3.45;69.00;95431.17;1764023;81;21500;-71
2022/12/22 14:14:19;;;;;;;32.77;17.07;;;;;;;3.37;69.81;95429.36;1764121;81;21042;-71
2022/12/22 14:16:48;;;;;;;31.80;16.83;;;;;;;3.30;69.84;95428.87;1763618;81;21509;-70
2022/12/22 14:19:20;;;;;;;31.83;18.37;;;;;;;3.29;69.65;95418.88;1764326;81;21532;-70
2022/12/22 14:22:01;;;;;;;37.97;22.47;;;;;;;3.28;69.96;95424.97;1764172;81;20991;-70
2022/12/22 14:24:33;;;;;;;41.30;22.87;;;;;;;3.31;69.82;95414.55;1764133;81;21010;-70
2022/12/22 14:27:01;;;;;;;38.87;21.83;;;;;;;3.32;70.46;95412.81;1764137;81;21009;-70
2022/12/22 14:29:29;;;;;;;36.30;20.80;;;;;;;3.34;70.37;95418.92;1764171;81;21027;-70
2022/12/22 14:32:01;;;;;;;35.70;19.67;;;;;;;3.33;70.63;95416.75;1764014;81;20990;-70
2022/12/22 14:34:31;;;;;;;32.73;19.80;;;;;;;3.33;71.42;95426.31;1764301;81;21456;-70
2022/12/22 14:36:59;;;;;;;30.53;18.43;;;;;;;3.31;71.27;95425.42;1753398;81;21090;-70
2022/12/22 14:39:30;;;;;;;35.47;19.97;;;;;;;3.33;71.46;95430.22;1745170;81;21126;-70
2022/12/22 14:42:08;;;;;;;29.73;17.27;;;;;;;3.34;71.88;95435.43;1745220;81;20995;-70
2022/12/22 14:44:44;;;;;;;29.43;17.93;;;;;;;3.39;72.26;95443.29;1744600;82;20983;-70
2022/12/22 14:47:18;;;;;;;39.23;21.90;;;;;;;3.41;72.44;95449.39;1745229;82;21014;-70
2022/12/22 14:49:59;;;;;;;28.50;17.67;;;;;;;3.39;72.15;95451.11;1745180;81;21043;-70
2022/12/22 14:52:42;;;;;;;29.67;18.77;;;;;;;3.32;72.74;95445.41;1745206;82;20999;-70
2022/12/22 14:55:38;;;;;;;34.27;19.07;;;;;;;3.23;72.35;95447.53;1745283;81;21051;-70
2022/12/22 14:58:15;;;;;;;36.43;22.07;;;;;;;3.23;72.56;95443.19;1745195;82;21513;-71
2022/12/22 15:00:48;;;;;;;33.87;19.80;;;;;;;3.16;73.22;95459.64;1745225;81;21015;-71
2022/12/22 15:03:34;;;;;;;35.68;19.77;;;;;;;3.10;73.00;95453.50;1745302;81;21553;-70
2022/12/22 15:06:30;;;;;;;30.70;19.03;;;;;;;3.04;73.13;95459.54;1745208;82;21022;-70
2022/12/22 15:09:18;;;;;;;33.23;20.27;;;;;;;2.97;74.01;95469.06;1737553;80;21151;-70
2022/12/22 15:11:50;;;;;;;38.33;22.37;;;;;;;2.88;73.73;95462.45;1745018;82;21022;-70
2022/12/22 15:14:24;;;;;;;40.07;24.20;;;;;;;2.83;74.68;95462.84;1713510;82;21031;-70
2022/12/22 15:16:58;;;;;;;33.63;20.13;;;;;;;2.77;74.86;95462.36;1743758;82;21003;-70
2022/12/22 15:19:29;;;;;;;41.53;27.03;;;;;;;2.72;74.70;95461.45;1745205;81;21060;-70
2022/12/22 15:21:56;;;;;;;43.20;25.07;;;;;;;2.69;74.65;95457.48;1745483;82;21453;-70
2022/12/22 15:24:24;;;;;;;34.27;21.40;;;;;;;2.73;74.39;95455.38;1745247;81;21031;-70
2022/12/22 15:26:50;;;;;;;34.43;20.10;;;;;;;2.71;74.62;95460.13;1745112;81;20999;-71
2022/12/22 15:29:17;;;;;;;41.67;23.60;;;;;;;2.59;75.34;95450.45;1745301;82;21019;-70
2022/12/22 15:31:44;;;;;;;41.23;22.70;;;;;;;2.51;75.80;95458.19;1745158;81;20959;-71
2022/12/22 15:34:24;;;;;;;40.50;24.27;;;;;;;2.52;76.11;95462.55;1745211;81;20983;-71
2022/12/22 15:36:51;;;;;;;37.97;22.70;;;;;;;2.50;76.16;95461.66;1745070;81;21034;-71
2022/12/22 15:39:21;;;;;;;40.87;24.17;;;;;;;2.48;76.75;95466.41;1745203;81;21051;-70